Check out our new PWSWeather beta!
PWSweather.com
Personal Weather Stations
Station Observations
PICKERING
North Yorkshire, PickeringGB

North YorkshirePickeringGB

Lat: 54.2494, Lon: -0.7725

Elevation: 192

Station Type: Oregon Scientific WMR100

High Low Average
Temperature 73.6°F23.1°C 52.7°F11.5°C 60.2°F15.7°C
Dew Point 55.4°F13.0°C 42.8°F6.0°C 48.0°F8.9°C
Winds 10.3 mph 16.6 kmh 0.1 mph 0.2 kmh 5.0 mph WSW8.0 kmh WSW
Wind Gusts 16.8 mph27.0 kmh 1.1 mph1.8 kmh 8.0 mph12.9 kmh
Humidity 79% 48% 64%
Pressure 29.92 in1013.2 mb 29.59 in1002.0 mb -
Precipitation 0.00 in0.0 mm - -
Hour Temp Dew Point Humidity Winds Wind Gusts Pressure Precip Precip Rate Daily Precip Total
12:00 AM 54.9°F12.7°C 48.2°F9.0°C 74% 2.1 mph S3.4 kmh S 5.6 mph9.0 kmh 29.59 in1002.0 mb 0.00 in0.0 mm 0.00 in0.0 mm 0.00 in0.0 mm
12:05 AM 54.9°F12.7°C 48.2°F9.0°C 74% 1.4 mph S2.3 kmh S 5.6 mph9.0 kmh 29.59 in1002.0 mb 0.00 in0.0 mm 0.00 in0.0 mm 0.00 in0.0 mm
12:10 AM 54.5°F12.5°C 48.2°F9.0°C 74% 0.7 mph SSE1.1 kmh SSE 2.5 mph4.0 kmh 29.59 in1002.0 mb 0.00 in0.0 mm 0.00 in0.0 mm 0.00 in0.0 mm
12:15 AM 54.5°F12.5°C 48.2°F9.0°C 74% 0.5 mph SW0.8 kmh SW 2.7 mph4.3 kmh 29.59 in1002.0 mb 0.00 in0.0 mm 0.00 in0.0 mm 0.00 in0.0 mm
12:20 AM 54.5°F12.5°C 48.2°F9.0°C 74% 0.6 mph WSW1.0 kmh WSW 3.1 mph5.0 kmh 29.59 in1002.0 mb 0.00 in0.0 mm 0.00 in0.0 mm 0.00 in0.0 mm
12:25 AM 54.5°F12.5°C 48.2°F9.0°C 74% 0.6 mph SSW1.0 kmh SSW 3.1 mph5.0 kmh 29.59 in1002.0 mb 0.00 in0.0 mm 0.00 in0.0 mm 0.00 in0.0 mm
12:30 AM 54.5°F12.5°C 48.2°F9.0°C 74% 1.7 mph SSE2.7 kmh SSE 4.3 mph6.9 kmh 29.59 in1002.0 mb 0.00 in0.0 mm 0.00 in0.0 mm 0.00 in0.0 mm
12:35 AM 54.3°F12.4°C 46.4°F8.0°C 74% 1.9 mph S3.1 kmh S 4.3 mph6.9 kmh 29.59 in1002.0 mb 0.00 in0.0 mm 0.00 in0.0 mm 0.00 in0.0 mm
12:40 AM 54.1°F12.3°C 46.4°F8.0°C 74% 0.8 mph SW1.3 kmh SW 3.1 mph5.0 kmh 29.59 in1002.0 mb 0.00 in0.0 mm 0.00 in0.0 mm 0.00 in0.0 mm
12:45 AM 54.0°F12.2°C 46.4°F8.0°C 75% 0.3 mph NNE0.5 kmh NNE 1.3 mph2.1 kmh 29.59 in1002.0 mb 0.00 in0.0 mm 0.00 in0.0 mm 0.00 in0.0 mm
12:50 AM 53.8°F12.1°C 46.4°F8.0°C 75% 0.3 mph N0.5 kmh N 1.3 mph2.1 kmh 29.59 in1002.0 mb 0.00 in0.0 mm 0.00 in0.0 mm 0.00 in0.0 mm
12:55 AM 53.8°F12.1°C 46.4°F8.0°C 75% 0.1 mph W0.2 kmh W 1.1 mph1.8 kmh 29.59 in1002.0 mb 0.00 in0.0 mm 0.00 in0.0 mm 0.00 in0.0 mm
01:00 AM 54.0°F12.2°C 46.4°F8.0°C 75% 0.1 mph W0.2 kmh W 1.1 mph1.8 kmh 29.59 in1002.0 mb 0.00 in0.0 mm 0.00 in0.0 mm 0.00 in0.0 mm
01:05 AM 54.0°F12.2°C 46.4°F8.0°C 75% 0.1 mph S0.2 kmh S 1.1 mph1.8 kmh 29.59 in1002.0 mb 0.00 in0.0 mm 0.00 in0.0 mm 0.00 in0.0 mm
01:10 AM 54.0°F12.2°C 46.4°F8.0°C 75% 0.1 mph S0.2 kmh S 1.1 mph1.8 kmh 29.59 in1002.0 mb 0.00 in0.0 mm 0.00 in0.0 mm 0.00 in0.0 mm
01:15 AM 54.0°F12.2°C 46.4°F8.0°C 76% 0.2 mph W0.3 kmh W 1.1 mph1.8 kmh 29.59 in1002.0 mb 0.00 in0.0 mm 0.00 in0.0 mm 0.00 in0.0 mm
01:20 AM 54.1°F12.3°C 48.2°F9.0°C 76% 1.0 mph SW1.6 kmh SW 2.9 mph4.7 kmh 29.59 in1002.0 mb 0.00 in0.0 mm 0.00 in0.0 mm 0.00 in0.0 mm
01:25 AM 54.1°F12.3°C 48.2°F9.0°C 76% 1.7 mph SSW2.7 kmh SSW 3.6 mph5.8 kmh 29.59 in1002.0 mb 0.00 in0.0 mm 0.00 in0.0 mm 0.00 in0.0 mm
01:30 AM 54.1°F12.3°C 48.2°F9.0°C 76% 1.4 mph S2.3 kmh S 3.6 mph5.8 kmh 29.59 in1002.0 mb 0.00 in0.0 mm 0.00 in0.0 mm 0.00 in0.0 mm
01:35 AM 54.3°F12.4°C 48.2°F9.0°C 76% 1.0 mph SW1.6 kmh SW 3.6 mph5.8 kmh 29.59 in1002.0 mb 0.00 in0.0 mm 0.00 in0.0 mm 0.00 in0.0 mm
01:40 AM 54.3°F12.4°C 48.2°F9.0°C 76% 0.9 mph WSW1.4 kmh WSW 3.6 mph5.8 kmh 29.59 in1002.0 mb 0.00 in0.0 mm 0.00 in0.0 mm 0.00 in0.0 mm
01:45 AM 54.5°F12.5°C 48.2°F9.0°C 76% 1.0 mph SW1.6 kmh SW 3.1 mph5.0 kmh 29.59 in1002.0 mb 0.00 in0.0 mm 0.00 in0.0 mm 0.00 in0.0 mm
01:50 AM 54.5°F12.5°C 48.2°F9.0°C 77% 1.1 mph WSW1.8 kmh WSW 3.1 mph5.0 kmh 29.59 in1002.0 mb 0.00 in0.0 mm 0.00 in0.0 mm 0.00 in0.0 mm
01:55 AM 54.5°F12.5°C 48.2°F9.0°C 76% 0.7 mph W1.1 kmh W 3.1 mph5.0 kmh 29.59 in1002.0 mb 0.00 in0.0 mm 0.00 in0.0 mm 0.00 in0.0 mm
02:00 AM 54.5°F12.5°C 48.2°F9.0°C 77% 1.3 mph SW2.1 kmh SW 3.6 mph5.8 kmh 29.59 in1002.0 mb 0.00 in0.0 mm 0.00 in0.0 mm 0.00 in0.0 mm
02:05 AM 54.5°F12.5°C 48.2°F9.0°C 76% 2.4 mph SW3.9 kmh SW 4.0 mph6.4 kmh 29.59 in1002.0 mb 0.00 in0.0 mm 0.00 in0.0 mm 0.00 in0.0 mm
02:10 AM 54.5°F12.5°C 48.2°F9.0°C 77% 2.0 mph SW3.2 kmh SW 4.0 mph6.4 kmh 29.59 in1002.0 mb 0.00 in0.0 mm 0.00 in0.0 mm 0.00 in0.0 mm
02:15 AM 54.5°F12.5°C 48.2°F9.0°C 77% 1.6 mph W2.6 kmh W 2.9 mph4.7 kmh 29.59 in1002.0 mb 0.00 in0.0 mm 0.00 in0.0 mm 0.00 in0.0 mm
02:20 AM 54.5°F12.5°C 48.2°F9.0°C 77% 1.9 mph W3.1 kmh W 3.4 mph5.5 kmh 29.59 in1002.0 mb 0.00 in0.0 mm 0.00 in0.0 mm 0.00 in0.0 mm
02:25 AM 54.1°F12.3°C 48.2°F9.0°C 78% 1.1 mph WSW1.8 kmh WSW 3.4 mph5.5 kmh 29.59 in1002.0 mb 0.00 in0.0 mm 0.00 in0.0 mm 0.00 in0.0 mm
02:30 AM 54.0°F12.2°C 48.2°F9.0°C 77% 0.4 mph WNW0.6 kmh WNW 2.5 mph4.0 kmh 29.59 in1002.0 mb 0.00 in0.0 mm 0.00 in0.0 mm 0.00 in0.0 mm
02:35 AM 54.0°F12.2°C 48.2°F9.0°C 77% 0.8 mph W1.3 kmh W 2.5 mph4.0 kmh 29.59 in1002.0 mb 0.00 in0.0 mm 0.00 in0.0 mm 0.00 in0.0 mm
02:40 AM 54.0°F12.2°C 48.2°F9.0°C 77% 1.2 mph SW1.9 kmh SW 2.7 mph4.3 kmh 29.59 in1002.0 mb 0.00 in0.0 mm 0.00 in0.0 mm 0.00 in0.0 mm
02:45 AM 53.8°F12.1°C 48.2°F9.0°C 77% 1.1 mph S1.8 kmh S 2.7 mph4.3 kmh 29.59 in1002.0 mb 0.00 in0.0 mm 0.00 in0.0 mm 0.00 in0.0 mm
02:50 AM 53.8°F12.1°C 48.2°F9.0°C 77% 1.3 mph SSW2.1 kmh SSW 3.1 mph5.0 kmh 29.59 in1002.0 mb 0.00 in0.0 mm 0.00 in0.0 mm 0.00 in0.0 mm
02:55 AM 53.8°F12.1°C 48.2°F9.0°C 77% 1.9 mph SSW3.1 kmh SSW 4.0 mph6.4 kmh 29.62 in1003.0 mb 0.00 in0.0 mm 0.00 in0.0 mm 0.00 in0.0 mm
03:00 AM 53.8°F12.1°C 48.2°F9.0°C 77% 2.3 mph SSW3.7 kmh SSW 4.0 mph6.4 kmh 29.62 in1003.0 mb 0.00 in0.0 mm 0.00 in0.0 mm 0.00 in0.0 mm
03:05 AM 53.8°F12.1°C 48.2°F9.0°C 77% 2.3 mph SW3.7 kmh SW 4.0 mph6.4 kmh 29.62 in1003.0 mb 0.00 in0.0 mm 0.00 in0.0 mm 0.00 in0.0 mm
03:10 AM 53.6°F12.0°C 48.2°F9.0°C 77% 1.4 mph SW2.3 kmh SW 3.6 mph5.8 kmh 29.62 in1003.0 mb 0.00 in0.0 mm 0.00 in0.0 mm 0.00 in0.0 mm
03:15 AM 53.6°F12.0°C 48.2°F9.0°C 78% 1.1 mph SW1.8 kmh SW 3.1 mph5.0 kmh 29.62 in1003.0 mb 0.00 in0.0 mm 0.00 in0.0 mm 0.00 in0.0 mm
03:20 AM 53.2°F11.8°C 46.4°F8.0°C 78% 1.0 mph WSW1.6 kmh WSW 3.8 mph6.1 kmh 29.62 in1003.0 mb 0.00 in0.0 mm 0.00 in0.0 mm 0.00 in0.0 mm
03:25 AM 53.1°F11.7°C 46.4°F8.0°C 78% 1.1 mph W1.8 kmh W 3.8 mph6.1 kmh 29.62 in1003.0 mb 0.00 in0.0 mm 0.00 in0.0 mm 0.00 in0.0 mm
03:30 AM 53.1°F11.7°C 46.4°F8.0°C 78% 1.3 mph NW2.1 kmh NW 2.7 mph4.3 kmh 29.62 in1003.0 mb 0.00 in0.0 mm 0.00 in0.0 mm 0.00 in0.0 mm
03:35 AM 52.9°F11.6°C 46.4°F8.0°C 78% 1.3 mph WNW2.1 kmh WNW 2.9 mph4.7 kmh 29.62 in1003.0 mb 0.00 in0.0 mm 0.00 in0.0 mm 0.00 in0.0 mm
03:40 AM 53.1°F11.7°C 46.4°F8.0°C 78% 1.0 mph W1.6 kmh W 2.9 mph4.7 kmh 29.62 in1003.0 mb 0.00 in0.0 mm 0.00 in0.0 mm 0.00 in0.0 mm
03:45 AM 53.1°F11.7°C 46.4°F8.0°C 78% 0.8 mph SW1.3 kmh SW 2.9 mph4.7 kmh 29.62 in1003.0 mb 0.00 in0.0 mm 0.00 in0.0 mm 0.00 in0.0 mm
03:50 AM 53.1°F11.7°C 46.4°F8.0°C 78% 0.6 mph S1.0 kmh S 2.5 mph4.0 kmh 29.62 in1003.0 mb 0.00 in0.0 mm 0.00 in0.0 mm 0.00 in0.0 mm
03:55 AM 53.2°F11.8°C 46.4°F8.0°C 78% 0.9 mph SW1.4 kmh SW 2.9 mph4.7 kmh 29.62 in1003.0 mb 0.00 in0.0 mm 0.00 in0.0 mm 0.00 in0.0 mm
04:00 AM 53.1°F11.7°C 46.4°F8.0°C 79% 0.9 mph WSW1.4 kmh WSW 2.9 mph4.7 kmh 29.62 in1003.0 mb 0.00 in0.0 mm 0.00 in0.0 mm 0.00 in0.0 mm
04:05 AM 53.1°F11.7°C 46.4°F8.0°C 79% 1.0 mph NW1.6 kmh NW 2.7 mph4.3 kmh 29.62 in1003.0 mb 0.00 in0.0 mm 0.00 in0.0 mm 0.00 in0.0 mm
04:10 AM 53.2°F11.8°C 46.4°F8.0°C 78% 1.4 mph WNW2.3 kmh WNW 3.4 mph5.5 kmh 29.62 in1003.0 mb 0.00 in0.0 mm 0.00 in0.0 mm 0.00 in0.0 mm
04:15 AM 53.2°F11.8°C 46.4°F8.0°C 79% 1.5 mph W2.4 kmh W 3.4 mph5.5 kmh 29.62 in1003.0 mb 0.00 in0.0 mm 0.00 in0.0 mm 0.00 in0.0 mm
04:20 AM 53.1°F11.7°C 46.4°F8.0°C 79% 1.5 mph WSW2.4 kmh WSW 2.9 mph4.7 kmh 29.62 in1003.0 mb 0.00 in0.0 mm 0.00 in0.0 mm 0.00 in0.0 mm
04:25 AM 53.1°F11.7°C 46.4°F8.0°C 78% 1.7 mph SW2.7 kmh SW 2.9 mph4.7 kmh 29.62 in1003.0 mb 0.00 in0.0 mm 0.00 in0.0 mm 0.00 in0.0 mm
04:30 AM 53.1°F11.7°C 46.4°F8.0°C 79% 1.8 mph SW2.9 kmh SW 2.9 mph4.7 kmh 29.62 in1003.0 mb 0.00 in0.0 mm 0.00 in0.0 mm 0.00 in0.0 mm
04:35 AM 53.1°F11.7°C 46.4°F8.0°C 79% 1.9 mph WSW3.1 kmh WSW 3.6 mph5.8 kmh 29.62 in1003.0 mb 0.00 in0.0 mm 0.00 in0.0 mm 0.00 in0.0 mm
04:40 AM 53.1°F11.7°C 46.4°F8.0°C 78% 2.5 mph W4.0 kmh W 3.8 mph6.1 kmh 29.62 in1003.0 mb 0.00 in0.0 mm 0.00 in0.0 mm 0.00 in0.0 mm
04:45 AM 53.1°F11.7°C 46.4°F8.0°C 79% 2.5 mph WSW4.0 kmh WSW 3.8 mph6.1 kmh 29.62 in1003.0 mb 0.00 in0.0 mm 0.00 in0.0 mm 0.00 in0.0 mm
04:50 AM 52.9°F11.6°C 46.4°F8.0°C 79% 1.7 mph WSW2.7 kmh WSW 2.9 mph4.7 kmh 29.62 in1003.0 mb 0.00 in0.0 mm 0.00 in0.0 mm 0.00 in0.0 mm
04:55 AM 52.9°F11.6°C 46.4°F8.0°C 79% 1.8 mph SW2.9 kmh SW 3.6 mph5.8 kmh 29.62 in1003.0 mb 0.00 in0.0 mm 0.00 in0.0 mm 0.00 in0.0 mm
05:00 AM 52.9°F11.6°C 46.4°F8.0°C 79% 1.6 mph SSW2.6 kmh SSW 3.6 mph5.8 kmh 29.62 in1003.0 mb 0.00 in0.0 mm 0.00 in0.0 mm 0.00 in0.0 mm
05:05 AM 52.7°F11.5°C 46.4°F8.0°C 79% 1.0 mph S1.6 kmh S 3.1 mph5.0 kmh 29.62 in1003.0 mb 0.00 in0.0 mm 0.00 in0.0 mm 0.00 in0.0 mm
05:10 AM 53.1°F11.7°C 46.4°F8.0°C 79% 2.1 mph S3.4 kmh S 4.9 mph7.9 kmh 29.62 in1003.0 mb 0.00 in0.0 mm 0.00 in0.0 mm 0.00 in0.0 mm
05:15 AM 53.1°F11.7°C 46.4°F8.0°C 79% 3.0 mph S4.8 kmh S 4.9 mph7.9 kmh 29.62 in1003.0 mb 0.00 in0.0 mm 0.00 in0.0 mm 0.00 in0.0 mm
05:20 AM 53.4°F11.9°C 48.2°F9.0°C 79% 3.0 mph S4.8 kmh S 4.0 mph6.4 kmh 29.62 in1003.0 mb 0.00 in0.0 mm 0.00 in0.0 mm 0.00 in0.0 mm
05:25 AM 53.6°F12.0°C 48.2°F9.0°C 79% 3.0 mph SW4.8 kmh SW 4.3 mph6.9 kmh 29.65 in1004.1 mb 0.00 in0.0 mm 0.00 in0.0 mm 0.00 in0.0 mm
05:30 AM 53.6°F12.0°C 48.2°F9.0°C 79% 2.4 mph SW3.9 kmh SW 4.3 mph6.9 kmh 29.65 in1004.1 mb 0.00 in0.0 mm 0.00 in0.0 mm 0.00 in0.0 mm
05:35 AM 53.6°F12.0°C 48.2°F9.0°C 79% 2.1 mph S3.4 kmh S 3.6 mph5.8 kmh 29.65 in1004.1 mb 0.00 in0.0 mm 0.00 in0.0 mm 0.00 in0.0 mm
05:40 AM 53.8°F12.1°C 48.2°F9.0°C 79% 2.5 mph SW4.0 kmh SW 4.7 mph7.6 kmh 29.65 in1004.1 mb 0.00 in0.0 mm 0.00 in0.0 mm 0.00 in0.0 mm
05:45 AM 53.8°F12.1°C 48.2°F9.0°C 79% 2.2 mph SW3.5 kmh SW 4.7 mph7.6 kmh 29.65 in1004.1 mb 0.00 in0.0 mm 0.00 in0.0 mm 0.00 in0.0 mm
05:50 AM 53.8°F12.1°C 48.2°F9.0°C 79% 1.9 mph SSW3.1 kmh SSW 3.8 mph6.1 kmh 29.65 in1004.1 mb 0.00 in0.0 mm 0.00 in0.0 mm 0.00 in0.0 mm
05:55 AM 54.0°F12.2°C 48.2°F9.0°C 79% 1.9 mph SW3.1 kmh SW 3.8 mph6.1 kmh 29.65 in1004.1 mb 0.00 in0.0 mm 0.00 in0.0 mm 0.00 in0.0 mm
06:00 AM 54.0°F12.2°C 48.2°F9.0°C 79% 2.0 mph SW3.2 kmh SW 3.8 mph6.1 kmh 29.65 in1004.1 mb 0.00 in0.0 mm 0.00 in0.0 mm 0.00 in0.0 mm
06:05 AM 54.1°F12.3°C 48.2°F9.0°C 79% 2.1 mph SSW3.4 kmh SSW 4.0 mph6.4 kmh 29.65 in1004.1 mb 0.00 in0.0 mm 0.00 in0.0 mm 0.00 in0.0 mm
06:10 AM 54.3°F12.4°C 48.2°F9.0°C 79% 2.3 mph S3.7 kmh S 4.0 mph6.4 kmh 29.68 in1005.1 mb 0.00 in0.0 mm 0.00 in0.0 mm 0.00 in0.0 mm
06:15 AM 54.5°F12.5°C 48.2°F9.0°C 79% 2.0 mph SW3.2 kmh SW 4.3 mph6.9 kmh 29.68 in1005.1 mb 0.00 in0.0 mm 0.00 in0.0 mm 0.00 in0.0 mm
06:20 AM 54.7°F12.6°C 48.2°F9.0°C 79% 2.0 mph SW3.2 kmh SW 6.0 mph9.7 kmh 29.68 in1005.1 mb 0.00 in0.0 mm 0.00 in0.0 mm 0.00 in0.0 mm
06:25 AM 54.9°F12.7°C 48.2°F9.0°C 79% 2.5 mph SW4.0 kmh SW 6.0 mph9.7 kmh 29.68 in1005.1 mb 0.00 in0.0 mm 0.00 in0.0 mm 0.00 in0.0 mm
06:30 AM 55.0°F12.8°C 50.0°F10.0°C 79% 2.5 mph SW4.0 kmh SW 5.6 mph9.0 kmh 29.68 in1005.1 mb 0.00 in0.0 mm 0.00 in0.0 mm 0.00 in0.0 mm
06:35 AM 55.2°F12.9°C 48.2°F9.0°C 78% 2.9 mph SW4.7 kmh SW 5.6 mph9.0 kmh 29.68 in1005.1 mb 0.00 in0.0 mm 0.00 in0.0 mm 0.00 in0.0 mm
06:40 AM 55.6°F13.1°C 50.0°F10.0°C 79% 3.6 mph SW5.8 kmh SW 6.5 mph10.5 kmh 29.68 in1005.1 mb 0.00 in0.0 mm 0.00 in0.0 mm 0.00 in0.0 mm
06:45 AM 55.8°F13.2°C 50.0°F10.0°C 79% 3.6 mph WSW5.8 kmh WSW 6.5 mph10.5 kmh 29.68 in1005.1 mb 0.00 in0.0 mm 0.00 in0.0 mm 0.00 in0.0 mm
06:50 AM 55.9°F13.3°C 50.0°F10.0°C 78% 3.9 mph WSW6.3 kmh WSW 7.4 mph11.9 kmh 29.68 in1005.1 mb 0.00 in0.0 mm 0.00 in0.0 mm 0.00 in0.0 mm
06:55 AM 55.9°F13.3°C 50.0°F10.0°C 79% 3.8 mph SW6.1 kmh SW 7.4 mph11.9 kmh 29.68 in1005.1 mb 0.00 in0.0 mm 0.00 in0.0 mm 0.00 in0.0 mm
07:00 AM 55.9°F13.3°C 50.0°F10.0°C 79% 3.5 mph WSW5.6 kmh WSW 6.3 mph10.1 kmh 29.68 in1005.1 mb 0.00 in0.0 mm 0.00 in0.0 mm 0.00 in0.0 mm
07:05 AM 56.1°F13.4°C 50.0°F10.0°C 78% 3.8 mph WSW6.1 kmh WSW 6.3 mph10.1 kmh 29.68 in1005.1 mb 0.00 in0.0 mm 0.00 in0.0 mm 0.00 in0.0 mm
07:10 AM 56.3°F13.5°C 50.0°F10.0°C 78% 3.7 mph WSW6.0 kmh WSW 5.6 mph9.0 kmh 29.68 in1005.1 mb 0.00 in0.0 mm 0.00 in0.0 mm 0.00 in0.0 mm
07:15 AM 56.7°F13.7°C 50.0°F10.0°C 78% 3.4 mph WSW5.5 kmh WSW 6.3 mph10.1 kmh 29.68 in1005.1 mb 0.00 in0.0 mm 0.00 in0.0 mm 0.00 in0.0 mm
07:20 AM 57.0°F13.9°C 50.0°F10.0°C 78% 3.7 mph WSW6.0 kmh WSW 7.6 mph12.2 kmh 29.68 in1005.1 mb 0.00 in0.0 mm 0.00 in0.0 mm 0.00 in0.0 mm
07:25 AM 57.2°F14.0°C 50.0°F10.0°C 78% 3.9 mph WSW6.3 kmh WSW 7.6 mph12.2 kmh 29.68 in1005.1 mb 0.00 in0.0 mm 0.00 in0.0 mm 0.00 in0.0 mm
07:30 AM 57.6°F14.2°C 51.8°F11.0°C 78% 5.1 mph WSW8.2 kmh WSW 9.4 mph15.1 kmh 29.68 in1005.1 mb 0.00 in0.0 mm 0.00 in0.0 mm 0.00 in0.0 mm
07:35 AM 57.9°F14.4°C 51.8°F11.0°C 77% 6.0 mph WSW9.7 kmh WSW 9.4 mph15.1 kmh 29.68 in1005.1 mb 0.00 in0.0 mm 0.00 in0.0 mm 0.00 in0.0 mm
07:40 AM 58.5°F14.7°C 51.8°F11.0°C 77% 5.4 mph SW8.7 kmh SW 9.8 mph15.8 kmh 29.68 in1005.1 mb 0.00 in0.0 mm 0.00 in0.0 mm 0.00 in0.0 mm
07:45 AM 59.0°F15.0°C 51.8°F11.0°C 77% 4.9 mph WSW7.9 kmh WSW 9.8 mph15.8 kmh 29.68 in1005.1 mb 0.00 in0.0 mm 0.00 in0.0 mm 0.00 in0.0 mm
07:50 AM 59.2°F15.1°C 51.8°F11.0°C 76% 6.8 mph WSW10.9 kmh WSW 13.0 mph20.9 kmh 29.68 in1005.1 mb 0.00 in0.0 mm 0.00 in0.0 mm 0.00 in0.0 mm
07:55 AM 59.4°F15.2°C 51.8°F11.0°C 76% 7.9 mph WSW12.7 kmh WSW 13.0 mph20.9 kmh 29.68 in1005.1 mb 0.00 in0.0 mm 0.00 in0.0 mm 0.00 in0.0 mm
08:00 AM 59.7°F15.4°C 51.8°F11.0°C 75% 7.6 mph WSW12.2 kmh WSW 11.0 mph17.7 kmh 29.68 in1005.1 mb 0.00 in0.0 mm 0.00 in0.0 mm 0.00 in0.0 mm
08:05 AM 60.1°F15.6°C 51.8°F11.0°C 73% 8.7 mph WSW14.0 kmh WSW 14.5 mph23.3 kmh 29.68 in1005.1 mb 0.00 in0.0 mm 0.00 in0.0 mm 0.00 in0.0 mm
08:10 AM 60.8°F16.0°C 51.8°F11.0°C 73% 8.0 mph WSW12.9 kmh WSW 14.5 mph23.3 kmh 29.71 in1006.1 mb 0.00 in0.0 mm 0.00 in0.0 mm 0.00 in0.0 mm
08:15 AM 61.3°F16.3°C 53.6°F12.0°C 72% 6.7 mph WSW10.8 kmh WSW 13.2 mph21.2 kmh 29.71 in1006.1 mb 0.00 in0.0 mm 0.00 in0.0 mm 0.00 in0.0 mm
08:20 AM 61.0°F16.1°C 51.8°F11.0°C 71% 7.2 mph WSW11.6 kmh WSW 13.2 mph21.2 kmh 29.71 in1006.1 mb 0.00 in0.0 mm 0.00 in0.0 mm 0.00 in0.0 mm
08:25 AM 60.8°F16.0°C 51.8°F11.0°C 71% 7.9 mph WSW12.7 kmh WSW 13.2 mph21.2 kmh 29.71 in1006.1 mb 0.00 in0.0 mm 0.00 in0.0 mm 0.00 in0.0 mm
08:30 AM 60.6°F15.9°C 51.8°F11.0°C 71% 8.0 mph WSW12.9 kmh WSW 10.7 mph17.2 kmh 29.71 in1006.1 mb 0.00 in0.0 mm 0.00 in0.0 mm 0.00 in0.0 mm
08:40 AM 62.1°F16.7°C 51.8°F11.0°C 69% 8.7 mph WSW14.0 kmh WSW 10.3 mph16.6 kmh 29.71 in1006.1 mb 0.00 in0.0 mm 0.00 in0.0 mm 0.00 in0.0 mm
08:45 AM 62.2°F16.8°C 51.8°F11.0°C 69% 6.2 mph WSW10.0 kmh WSW 8.5 mph13.7 kmh 29.71 in1006.1 mb 0.00 in0.0 mm 0.00 in0.0 mm 0.00 in0.0 mm
08:50 AM 62.8°F17.1°C 51.8°F11.0°C 67% 5.4 mph WSW8.7 kmh WSW 7.8 mph12.6 kmh 29.71 in1006.1 mb 0.00 in0.0 mm 0.00 in0.0 mm 0.00 in0.0 mm
08:55 AM 63.7°F17.6°C 53.6°F12.0°C 67% 6.2 mph WSW10.0 kmh WSW 8.5 mph13.7 kmh 29.71 in1006.1 mb 0.00 in0.0 mm 0.00 in0.0 mm 0.00 in0.0 mm
09:00 AM 62.8°F17.1°C 51.8°F11.0°C 67% 7.3 mph WSW11.7 kmh WSW 10.5 mph16.9 kmh 29.71 in1006.1 mb 0.00 in0.0 mm 0.00 in0.0 mm 0.00 in0.0 mm
09:05 AM 63.1°F17.3°C 51.8°F11.0°C 66% 8.4 mph WSW13.5 kmh WSW 13.9 mph22.4 kmh 29.71 in1006.1 mb 0.00 in0.0 mm 0.00 in0.0 mm 0.00 in0.0 mm
09:10 AM 64.2°F17.9°C 53.6°F12.0°C 66% 8.0 mph WSW12.9 kmh WSW 13.9 mph22.4 kmh 29.71 in1006.1 mb 0.00 in0.0 mm 0.00 in0.0 mm 0.00 in0.0 mm
09:15 AM 64.4°F18.0°C 53.6°F12.0°C 65% 6.9 mph WSW11.1 kmh WSW 13.0 mph20.9 kmh 29.71 in1006.1 mb 0.00 in0.0 mm 0.00 in0.0 mm 0.00 in0.0 mm
09:20 AM 65.1°F18.4°C 53.6°F12.0°C 64% 6.3 mph WSW10.1 kmh WSW 13.0 mph20.9 kmh 29.71 in1006.1 mb 0.00 in0.0 mm 0.00 in0.0 mm 0.00 in0.0 mm
09:25 AM 65.5°F18.6°C 53.6°F12.0°C 65% 6.8 mph WSW10.9 kmh WSW 13.6 mph21.9 kmh 29.74 in1007.1 mb 0.00 in0.0 mm 0.00 in0.0 mm 0.00 in0.0 mm
09:30 AM 65.3°F18.5°C 53.6°F12.0°C 64% 8.2 mph WSW13.2 kmh WSW 13.6 mph21.9 kmh 29.74 in1007.1 mb 0.00 in0.0 mm 0.00 in0.0 mm 0.00 in0.0 mm
09:35 AM 66.4°F19.1°C 53.6°F12.0°C 62% 9.7 mph SW15.6 kmh SW 14.5 mph23.3 kmh 29.74 in1007.1 mb 0.00 in0.0 mm 0.00 in0.0 mm 0.00 in0.0 mm
09:40 AM 66.2°F19.0°C 51.8°F11.0°C 61% 9.5 mph WSW15.3 kmh WSW 14.5 mph23.3 kmh 29.71 in1006.1 mb 0.00 in0.0 mm 0.00 in0.0 mm 0.00 in0.0 mm
09:45 AM 67.5°F19.7°C 53.6°F12.0°C 61% 6.9 mph WSW11.1 kmh WSW 11.2 mph18.0 kmh 29.71 in1006.1 mb 0.00 in0.0 mm 0.00 in0.0 mm 0.00 in0.0 mm
09:50 AM 67.3°F19.6°C 53.6°F12.0°C 61% 7.0 mph WSW11.3 kmh WSW 10.7 mph17.2 kmh 29.71 in1006.1 mb 0.00 in0.0 mm 0.00 in0.0 mm 0.00 in0.0 mm
09:55 AM 68.0°F20.0°C 53.6°F12.0°C 59% 7.8 mph WSW12.6 kmh WSW 11.9 mph19.2 kmh 29.74 in1007.1 mb 0.00 in0.0 mm 0.00 in0.0 mm 0.00 in0.0 mm
10:00 AM 68.2°F20.1°C 53.6°F12.0°C 59% 8.8 mph WSW14.2 kmh WSW 15.2 mph24.5 kmh 29.74 in1007.1 mb 0.00 in0.0 mm 0.00 in0.0 mm 0.00 in0.0 mm
10:05 AM 68.7°F20.4°C 53.6°F12.0°C 58% 8.2 mph W13.2 kmh W 15.2 mph24.5 kmh 29.74 in1007.1 mb 0.00 in0.0 mm 0.00 in0.0 mm 0.00 in0.0 mm
10:10 AM 69.1°F20.6°C 53.6°F12.0°C 58% 6.7 mph WSW10.8 kmh WSW 11.9 mph19.2 kmh 29.74 in1007.1 mb 0.00 in0.0 mm 0.00 in0.0 mm 0.00 in0.0 mm
10:15 AM 70.7°F21.5°C 55.4°F13.0°C 57% 6.1 mph WSW9.8 kmh WSW 10.7 mph17.2 kmh 29.74 in1007.1 mb 0.00 in0.0 mm 0.00 in0.0 mm 0.00 in0.0 mm
10:20 AM 70.7°F21.5°C 55.4°F13.0°C 56% 6.0 mph WSW9.7 kmh WSW 8.7 mph14.0 kmh 29.74 in1007.1 mb 0.00 in0.0 mm 0.00 in0.0 mm 0.00 in0.0 mm
10:25 AM 70.2°F21.2°C 53.6°F12.0°C 56% 6.8 mph WSW10.9 kmh WSW 8.7 mph14.0 kmh 29.74 in1007.1 mb 0.00 in0.0 mm 0.00 in0.0 mm 0.00 in0.0 mm
10:30 AM 70.2°F21.2°C 53.6°F12.0°C 55% 7.6 mph WSW12.2 kmh WSW 13.2 mph21.2 kmh 29.74 in1007.1 mb 0.00 in0.0 mm 0.00 in0.0 mm 0.00 in0.0 mm
10:35 AM 71.1°F21.7°C 53.6°F12.0°C 54% 8.0 mph WSW12.9 kmh WSW 13.2 mph21.2 kmh 29.74 in1007.1 mb 0.00 in0.0 mm 0.00 in0.0 mm 0.00 in0.0 mm
10:40 AM 72.5°F22.5°C 55.4°F13.0°C 54% 6.9 mph W11.1 kmh W 11.2 mph18.0 kmh 29.74 in1007.1 mb 0.00 in0.0 mm 0.00 in0.0 mm 0.00 in0.0 mm
10:45 AM 72.1°F22.3°C 55.4°F13.0°C 53% 7.6 mph WSW12.2 kmh WSW 12.1 mph19.5 kmh 29.74 in1007.1 mb 0.00 in0.0 mm 0.00 in0.0 mm 0.00 in0.0 mm
10:50 AM 71.1°F21.7°C 53.6°F12.0°C 54% 6.7 mph WSW10.8 kmh WSW 12.1 mph19.5 kmh 29.74 in1007.1 mb 0.00 in0.0 mm 0.00 in0.0 mm 0.00 in0.0 mm
10:55 AM 70.9°F21.6°C 53.6°F12.0°C 54% 6.3 mph WSW10.1 kmh WSW 10.7 mph17.2 kmh 29.74 in1007.1 mb 0.00 in0.0 mm 0.00 in0.0 mm 0.00 in0.0 mm
11:00 AM 69.8°F21.0°C 51.8°F11.0°C 53% 8.9 mph WSW14.3 kmh WSW 13.9 mph22.4 kmh 29.74 in1007.1 mb 0.00 in0.0 mm 0.00 in0.0 mm 0.00 in0.0 mm
11:05 AM 69.1°F20.6°C 51.8°F11.0°C 53% 9.9 mph WSW15.9 kmh WSW 13.9 mph22.4 kmh 29.74 in1007.1 mb 0.00 in0.0 mm 0.00 in0.0 mm 0.00 in0.0 mm
11:10 AM 69.3°F20.7°C 51.8°F11.0°C 53% 9.4 mph WSW15.1 kmh WSW 12.8 mph20.6 kmh 29.74 in1007.1 mb 0.00 in0.0 mm 0.00 in0.0 mm 0.00 in0.0 mm
11:15 AM 70.2°F21.2°C 51.8°F11.0°C 52% 7.8 mph WSW12.6 kmh WSW 11.0 mph17.7 kmh 29.74 in1007.1 mb 0.00 in0.0 mm 0.00 in0.0 mm 0.00 in0.0 mm
11:20 AM 70.0°F21.1°C 51.8°F11.0°C 52% 7.7 mph SW12.4 kmh SW 10.7 mph17.2 kmh 29.74 in1007.1 mb 0.00 in0.0 mm 0.00 in0.0 mm 0.00 in0.0 mm
11:25 AM 69.6°F20.9°C 51.8°F11.0°C 53% 8.9 mph WSW14.3 kmh WSW 12.5 mph20.1 kmh 29.74 in1007.1 mb 0.00 in0.0 mm 0.00 in0.0 mm 0.00 in0.0 mm
11:30 AM 70.9°F21.6°C 53.6°F12.0°C 52% 8.8 mph WSW14.2 kmh WSW 12.5 mph20.1 kmh 29.74 in1007.1 mb 0.00 in0.0 mm 0.00 in0.0 mm 0.00 in0.0 mm
11:35 AM 71.4°F21.9°C 53.6°F12.0°C 51% 7.8 mph WSW12.6 kmh WSW 12.3 mph19.8 kmh 29.74 in1007.1 mb 0.00 in0.0 mm 0.00 in0.0 mm 0.00 in0.0 mm
11:40 AM 71.1°F21.7°C 51.8°F11.0°C 51% 7.1 mph W11.4 kmh W 12.3 mph19.8 kmh 29.74 in1007.1 mb 0.00 in0.0 mm 0.00 in0.0 mm 0.00 in0.0 mm
11:45 AM 71.6°F22.0°C 53.6°F12.0°C 51% 7.4 mph WSW11.9 kmh WSW 12.3 mph19.8 kmh 29.74 in1007.1 mb 0.00 in0.0 mm 0.00 in0.0 mm 0.00 in0.0 mm
11:50 AM 70.9°F21.6°C 51.8°F11.0°C 51% 7.8 mph WSW12.6 kmh WSW 12.3 mph19.8 kmh 29.74 in1007.1 mb 0.00 in0.0 mm 0.00 in0.0 mm 0.00 in0.0 mm
11:55 AM 72.0°F22.2°C 53.6°F12.0°C 51% 7.8 mph WSW12.6 kmh WSW 11.0 mph17.7 kmh 29.77 in1008.1 mb 0.00 in0.0 mm 0.00 in0.0 mm 0.00 in0.0 mm
12:00 PM 72.1°F22.3°C 53.6°F12.0°C 51% 8.2 mph W13.2 kmh W 12.1 mph19.5 kmh 29.77 in1008.1 mb 0.00 in0.0 mm 0.00 in0.0 mm 0.00 in0.0 mm
12:05 PM 72.5°F22.5°C 53.6°F12.0°C 50% 9.3 mph WSW15.0 kmh WSW 13.2 mph21.2 kmh 29.77 in1008.1 mb 0.00 in0.0 mm 0.00 in0.0 mm 0.00 in0.0 mm
12:10 PM 72.9°F22.7°C 53.6°F12.0°C 50% 7.8 mph SW12.6 kmh SW 13.2 mph21.2 kmh 29.77 in1008.1 mb 0.00 in0.0 mm 0.00 in0.0 mm 0.00 in0.0 mm
12:15 PM 73.6°F23.1°C 53.6°F12.0°C 49% 5.5 mph SW8.9 kmh SW 9.6 mph15.4 kmh 29.77 in1008.1 mb 0.00 in0.0 mm 0.00 in0.0 mm 0.00 in0.0 mm
12:20 PM 73.4°F23.0°C 53.6°F12.0°C 48% 6.7 mph WSW10.8 kmh WSW 12.8 mph20.6 kmh 29.77 in1008.1 mb 0.00 in0.0 mm 0.00 in0.0 mm 0.00 in0.0 mm
12:25 PM 72.7°F22.6°C 53.6°F12.0°C 50% 7.7 mph W12.4 kmh W 12.8 mph20.6 kmh 29.77 in1008.1 mb 0.00 in0.0 mm 0.00 in0.0 mm 0.00 in0.0 mm
12:30 PM 71.4°F21.9°C 51.8°F11.0°C 50% 9.1 mph W14.6 kmh W 12.3 mph19.8 kmh 29.77 in1008.1 mb 0.00 in0.0 mm 0.00 in0.0 mm 0.00 in0.0 mm
12:35 PM 68.7°F20.4°C 50.0°F10.0°C 51% 9.8 mph W15.8 kmh W 13.0 mph20.9 kmh 29.77 in1008.1 mb 0.00 in0.0 mm 0.00 in0.0 mm 0.00 in0.0 mm
12:40 PM 66.4°F19.1°C 48.2°F9.0°C 52% 8.1 mph WSW13.0 kmh WSW 13.0 mph20.9 kmh 29.80 in1009.1 mb 0.00 in0.0 mm 0.00 in0.0 mm 0.00 in0.0 mm
12:45 PM 66.4°F19.1°C 48.2°F9.0°C 53% 6.7 mph W10.8 kmh W 12.8 mph20.6 kmh 29.80 in1009.1 mb 0.00 in0.0 mm 0.00 in0.0 mm 0.00 in0.0 mm
12:50 PM 66.6°F19.2°C 50.0°F10.0°C 54% 6.1 mph WSW9.8 kmh WSW 8.7 mph14.0 kmh 29.80 in1009.1 mb 0.00 in0.0 mm 0.00 in0.0 mm 0.00 in0.0 mm
12:55 PM 67.8°F19.9°C 51.8°F11.0°C 55% 6.0 mph W9.7 kmh W 9.6 mph15.4 kmh 29.80 in1009.1 mb 0.00 in0.0 mm 0.00 in0.0 mm 0.00 in0.0 mm
01:00 PM 67.6°F19.8°C 50.0°F10.0°C 55% 6.4 mph W10.3 kmh W 10.3 mph16.6 kmh 29.80 in1009.1 mb 0.00 in0.0 mm 0.00 in0.0 mm 0.00 in0.0 mm
01:05 PM 67.6°F19.8°C 50.0°F10.0°C 54% 8.3 mph WSW13.4 kmh WSW 12.8 mph20.6 kmh 29.80 in1009.1 mb 0.00 in0.0 mm 0.00 in0.0 mm 0.00 in0.0 mm
01:10 PM 66.9°F19.4°C 50.0°F10.0°C 54% 10.0 mph W16.1 kmh W 12.8 mph20.6 kmh 29.80 in1009.1 mb 0.00 in0.0 mm 0.00 in0.0 mm 0.00 in0.0 mm
01:15 PM 67.1°F19.5°C 50.0°F10.0°C 54% 9.7 mph W15.6 kmh W 13.6 mph21.9 kmh 29.80 in1009.1 mb 0.00 in0.0 mm 0.00 in0.0 mm 0.00 in0.0 mm
01:20 PM 66.7°F19.3°C 50.0°F10.0°C 54% 8.6 mph WSW13.8 kmh WSW 13.6 mph21.9 kmh 29.80 in1009.1 mb 0.00 in0.0 mm 0.00 in0.0 mm 0.00 in0.0 mm
01:25 PM 67.6°F19.8°C 50.0°F10.0°C 54% 7.2 mph WSW11.6 kmh WSW 10.1 mph16.3 kmh 29.80 in1009.1 mb 0.00 in0.0 mm 0.00 in0.0 mm 0.00 in0.0 mm
01:30 PM 67.3°F19.6°C 50.0°F10.0°C 54% 8.4 mph W13.5 kmh W 10.5 mph16.9 kmh 29.80 in1009.1 mb 0.00 in0.0 mm 0.00 in0.0 mm 0.00 in0.0 mm
01:35 PM 66.7°F19.3°C 50.0°F10.0°C 54% 8.2 mph WSW13.2 kmh WSW 10.5 mph16.9 kmh 29.80 in1009.1 mb 0.00 in0.0 mm 0.00 in0.0 mm 0.00 in0.0 mm
01:40 PM 66.4°F19.1°C 50.0°F10.0°C 54% 6.7 mph W10.8 kmh W 10.7 mph17.2 kmh 29.80 in1009.1 mb 0.00 in0.0 mm 0.00 in0.0 mm 0.00 in0.0 mm
01:45 PM 66.0°F18.9°C 50.0°F10.0°C 56% 4.9 mph WNW7.9 kmh WNW 10.7 mph17.2 kmh 29.80 in1009.1 mb 0.00 in0.0 mm 0.00 in0.0 mm 0.00 in0.0 mm
01:50 PM 65.7°F18.7°C 50.0°F10.0°C 56% 5.1 mph WSW8.2 kmh WSW 9.4 mph15.1 kmh 29.80 in1009.1 mb 0.00 in0.0 mm 0.00 in0.0 mm 0.00 in0.0 mm
01:55 PM 65.7°F18.7°C 50.0°F10.0°C 57% 6.3 mph WSW10.1 kmh WSW 9.4 mph15.1 kmh 29.80 in1009.1 mb 0.00 in0.0 mm 0.00 in0.0 mm 0.00 in0.0 mm
02:00 PM 65.1°F18.4°C 50.0°F10.0°C 57% 6.2 mph WSW10.0 kmh WSW 8.7 mph14.0 kmh 29.80 in1009.1 mb 0.00 in0.0 mm 0.00 in0.0 mm 0.00 in0.0 mm
02:05 PM 64.8°F18.2°C 50.0°F10.0°C 57% 6.5 mph WSW10.5 kmh WSW 8.5 mph13.7 kmh 29.80 in1009.1 mb 0.00 in0.0 mm 0.00 in0.0 mm 0.00 in0.0 mm
02:10 PM 64.8°F18.2°C 50.0°F10.0°C 57% 6.0 mph WSW9.7 kmh WSW 8.5 mph13.7 kmh 29.80 in1009.1 mb 0.00 in0.0 mm 0.00 in0.0 mm 0.00 in0.0 mm
02:15 PM 65.1°F18.4°C 50.0°F10.0°C 57% 5.4 mph WSW8.7 kmh WSW 8.5 mph13.7 kmh 29.80 in1009.1 mb 0.00 in0.0 mm 0.00 in0.0 mm 0.00 in0.0 mm
02:20 PM 65.5°F18.6°C 50.0°F10.0°C 57% 6.8 mph W10.9 kmh W 11.0 mph17.7 kmh 29.80 in1009.1 mb 0.00 in0.0 mm 0.00 in0.0 mm 0.00 in0.0 mm
02:25 PM 65.5°F18.6°C 50.0°F10.0°C 57% 6.4 mph WSW10.3 kmh WSW 11.0 mph17.7 kmh 29.80 in1009.1 mb 0.00 in0.0 mm 0.00 in0.0 mm 0.00 in0.0 mm
02:30 PM 65.5°F18.6°C 50.0°F10.0°C 56% 5.1 mph SW8.2 kmh SW 9.6 mph15.4 kmh 29.80 in1009.1 mb 0.00 in0.0 mm 0.00 in0.0 mm 0.00 in0.0 mm
02:35 PM 65.5°F18.6°C 50.0°F10.0°C 56% 6.3 mph SW10.1 kmh SW 11.0 mph17.7 kmh 29.80 in1009.1 mb 0.00 in0.0 mm 0.00 in0.0 mm 0.00 in0.0 mm
02:40 PM 66.6°F19.2°C 50.0°F10.0°C 54% 6.4 mph WSW10.3 kmh WSW 11.0 mph17.7 kmh 29.80 in1009.1 mb 0.00 in0.0 mm 0.00 in0.0 mm 0.00 in0.0 mm
02:45 PM 68.0°F20.0°C 51.8°F11.0°C 54% 5.8 mph WSW9.3 kmh WSW 10.5 mph16.9 kmh 29.80 in1009.1 mb 0.00 in0.0 mm 0.00 in0.0 mm 0.00 in0.0 mm
02:50 PM 68.5°F20.3°C 51.8°F11.0°C 53% 7.4 mph SW11.9 kmh SW 16.8 mph27.0 kmh 29.80 in1009.1 mb 0.00 in0.0 mm 0.00 in0.0 mm 0.00 in0.0 mm
02:55 PM 69.4°F20.8°C 51.8°F11.0°C 52% 8.4 mph W13.5 kmh W 16.8 mph27.0 kmh 29.80 in1009.1 mb 0.00 in0.0 mm 0.00 in0.0 mm 0.00 in0.0 mm
03:00 PM 68.9°F20.5°C 50.0°F10.0°C 51% 8.3 mph W13.4 kmh W 11.0 mph17.7 kmh 29.80 in1009.1 mb 0.00 in0.0 mm 0.00 in0.0 mm 0.00 in0.0 mm
03:05 PM 69.1°F20.6°C 50.0°F10.0°C 51% 7.9 mph WSW12.7 kmh WSW 12.3 mph19.8 kmh 29.80 in1009.1 mb 0.00 in0.0 mm 0.00 in0.0 mm 0.00 in0.0 mm
03:10 PM 69.4°F20.8°C 50.0°F10.0°C 50% 8.8 mph W14.2 kmh W 14.3 mph23.0 kmh 29.80 in1009.1 mb 0.00 in0.0 mm 0.00 in0.0 mm 0.00 in0.0 mm
03:15 PM 69.3°F20.7°C 50.0°F10.0°C 50% 8.9 mph W14.3 kmh W 14.3 mph23.0 kmh 29.80 in1009.1 mb 0.00 in0.0 mm 0.00 in0.0 mm 0.00 in0.0 mm
03:20 PM 68.0°F20.0°C 48.2°F9.0°C 50% 7.4 mph WSW11.9 kmh WSW 13.0 mph20.9 kmh 29.80 in1009.1 mb 0.00 in0.0 mm 0.00 in0.0 mm 0.00 in0.0 mm
03:25 PM 69.1°F20.6°C 50.0°F10.0°C 50% 7.2 mph WSW11.6 kmh WSW 12.8 mph20.6 kmh 29.80 in1009.1 mb 0.00 in0.0 mm 0.00 in0.0 mm 0.00 in0.0 mm
03:30 PM 69.4°F20.8°C 50.0°F10.0°C 50% 8.0 mph W12.9 kmh W 12.8 mph20.6 kmh 29.80 in1009.1 mb 0.00 in0.0 mm 0.00 in0.0 mm 0.00 in0.0 mm
03:35 PM 69.1°F20.6°C 50.0°F10.0°C 49% 9.8 mph WSW15.8 kmh WSW 14.5 mph23.3 kmh 29.80 in1009.1 mb 0.00 in0.0 mm 0.00 in0.0 mm 0.00 in0.0 mm
03:40 PM 68.7°F20.4°C 50.0°F10.0°C 50% 8.5 mph WSW13.7 kmh WSW 14.5 mph23.3 kmh 29.83 in1010.2 mb 0.00 in0.0 mm 0.00 in0.0 mm 0.00 in0.0 mm
03:45 PM 68.0°F20.0°C 48.2°F9.0°C 49% 6.8 mph WSW10.9 kmh WSW 10.7 mph17.2 kmh 29.83 in1010.2 mb 0.00 in0.0 mm 0.00 in0.0 mm 0.00 in0.0 mm
03:50 PM 68.0°F20.0°C 48.2°F9.0°C 49% 7.8 mph W12.6 kmh W 11.9 mph19.2 kmh 29.83 in1010.2 mb 0.00 in0.0 mm 0.00 in0.0 mm 0.00 in0.0 mm
03:55 PM 68.2°F20.1°C 48.2°F9.0°C 49% 9.3 mph W15.0 kmh W 13.0 mph20.9 kmh 29.83 in1010.2 mb 0.00 in0.0 mm 0.00 in0.0 mm 0.00 in0.0 mm
04:00 PM 67.6°F19.8°C 48.2°F9.0°C 49% 9.8 mph W15.8 kmh W 16.6 mph26.7 kmh 29.83 in1010.2 mb 0.00 in0.0 mm 0.00 in0.0 mm 0.00 in0.0 mm
04:05 PM 67.1°F19.5°C 48.2°F9.0°C 49% 9.8 mph WSW15.8 kmh WSW 16.6 mph26.7 kmh 29.83 in1010.2 mb 0.00 in0.0 mm 0.00 in0.0 mm 0.00 in0.0 mm
04:10 PM 66.9°F19.4°C 46.4°F8.0°C 48% 10.3 mph WSW16.6 kmh WSW 14.1 mph22.7 kmh 29.83 in1010.2 mb 0.00 in0.0 mm 0.00 in0.0 mm 0.00 in0.0 mm
04:15 PM 66.9°F19.4°C 48.2°F9.0°C 49% 7.9 mph WSW12.7 kmh WSW 14.1 mph22.7 kmh 29.83 in1010.2 mb 0.00 in0.0 mm 0.00 in0.0 mm 0.00 in0.0 mm
04:20 PM 66.6°F19.2°C 48.2°F9.0°C 49% 6.8 mph W10.9 kmh W 11.9 mph19.2 kmh 29.83 in1010.2 mb 0.00 in0.0 mm 0.00 in0.0 mm 0.00 in0.0 mm
04:25 PM 66.2°F19.0°C 46.4°F8.0°C 49% 8.2 mph W13.2 kmh W 12.3 mph19.8 kmh 29.83 in1010.2 mb 0.00 in0.0 mm 0.00 in0.0 mm 0.00 in0.0 mm
04:30 PM 66.2°F19.0°C 46.4°F8.0°C 49% 7.7 mph WSW12.4 kmh WSW 12.3 mph19.8 kmh 29.83 in1010.2 mb 0.00 in0.0 mm 0.00 in0.0 mm 0.00 in0.0 mm
04:35 PM 65.8°F18.8°C 46.4°F8.0°C 50% 7.5 mph WSW12.1 kmh WSW 12.5 mph20.1 kmh 29.83 in1010.2 mb 0.00 in0.0 mm 0.00 in0.0 mm 0.00 in0.0 mm
04:40 PM 65.3°F18.5°C 46.4°F8.0°C 50% 7.2 mph WSW11.6 kmh WSW 12.5 mph20.1 kmh 29.83 in1010.2 mb 0.00 in0.0 mm 0.00 in0.0 mm 0.00 in0.0 mm
04:45 PM 65.5°F18.6°C 46.4°F8.0°C 50% 6.7 mph WSW10.8 kmh WSW 10.3 mph16.6 kmh 29.83 in1010.2 mb 0.00 in0.0 mm 0.00 in0.0 mm 0.00 in0.0 mm
04:50 PM 65.5°F18.6°C 46.4°F8.0°C 50% 6.7 mph WSW10.8 kmh WSW 12.5 mph20.1 kmh 29.83 in1010.2 mb 0.00 in0.0 mm 0.00 in0.0 mm 0.00 in0.0 mm
04:55 PM 65.1°F18.4°C 46.4°F8.0°C 50% 8.2 mph WSW13.2 kmh WSW 12.5 mph20.1 kmh 29.83 in1010.2 mb 0.00 in0.0 mm 0.00 in0.0 mm 0.00 in0.0 mm
05:00 PM 64.9°F18.3°C 46.4°F8.0°C 50% 10.2 mph WSW16.4 kmh WSW 15.4 mph24.8 kmh 29.83 in1010.2 mb 0.00 in0.0 mm 0.00 in0.0 mm 0.00 in0.0 mm
05:05 PM 64.8°F18.2°C 46.4°F8.0°C 50% 9.9 mph WSW15.9 kmh WSW 15.4 mph24.8 kmh 29.83 in1010.2 mb 0.00 in0.0 mm 0.00 in0.0 mm 0.00 in0.0 mm
05:10 PM 64.4°F18.0°C 46.4°F8.0°C 50% 7.9 mph WSW12.7 kmh WSW 12.3 mph19.8 kmh 29.83 in1010.2 mb 0.00 in0.0 mm 0.00 in0.0 mm 0.00 in0.0 mm
05:15 PM 64.4°F18.0°C 46.4°F8.0°C 50% 7.4 mph WSW11.9 kmh WSW 10.5 mph16.9 kmh 29.83 in1010.2 mb 0.00 in0.0 mm 0.00 in0.0 mm 0.00 in0.0 mm
05:20 PM 64.0°F17.8°C 44.6°F7.0°C 50% 8.1 mph W13.0 kmh W 11.0 mph17.7 kmh 29.83 in1010.2 mb 0.00 in0.0 mm 0.00 in0.0 mm 0.00 in0.0 mm
05:25 PM 63.7°F17.6°C 44.6°F7.0°C 50% 8.2 mph W13.2 kmh W 12.1 mph19.5 kmh 29.83 in1010.2 mb 0.00 in0.0 mm 0.00 in0.0 mm 0.00 in0.0 mm
05:30 PM 63.5°F17.5°C 44.6°F7.0°C 50% 8.7 mph WSW14.0 kmh WSW 12.8 mph20.6 kmh 29.83 in1010.2 mb 0.00 in0.0 mm 0.00 in0.0 mm 0.00 in0.0 mm
05:35 PM 63.1°F17.3°C 44.6°F7.0°C 50% 8.9 mph WSW14.3 kmh WSW 12.8 mph20.6 kmh 29.83 in1010.2 mb 0.00 in0.0 mm 0.00 in0.0 mm 0.00 in0.0 mm
05:40 PM 63.0°F17.2°C 44.6°F7.0°C 51% 8.1 mph WSW13.0 kmh WSW 12.8 mph20.6 kmh 29.86 in1011.2 mb 0.00 in0.0 mm 0.00 in0.0 mm 0.00 in0.0 mm
05:45 PM 62.6°F17.0°C 44.6°F7.0°C 51% 8.0 mph WSW12.9 kmh WSW 12.1 mph19.5 kmh 29.86 in1011.2 mb 0.00 in0.0 mm 0.00 in0.0 mm 0.00 in0.0 mm
05:50 PM 62.4°F16.9°C 44.6°F7.0°C 52% 7.0 mph SW11.3 kmh SW 10.5 mph16.9 kmh 29.86 in1011.2 mb 0.00 in0.0 mm 0.00 in0.0 mm 0.00 in0.0 mm
05:55 PM 62.2°F16.8°C 44.6°F7.0°C 52% 6.1 mph SW9.8 kmh SW 8.7 mph14.0 kmh 29.86 in1011.2 mb 0.00 in0.0 mm 0.00 in0.0 mm 0.00 in0.0 mm
06:00 PM 62.2°F16.8°C 44.6°F7.0°C 52% 5.9 mph SW9.5 kmh SW 8.7 mph14.0 kmh 29.86 in1011.2 mb 0.00 in0.0 mm 0.00 in0.0 mm 0.00 in0.0 mm
06:05 PM 62.2°F16.8°C 44.6°F7.0°C 53% 4.9 mph WSW7.9 kmh WSW 8.7 mph14.0 kmh 29.86 in1011.2 mb 0.00 in0.0 mm 0.00 in0.0 mm 0.00 in0.0 mm
06:10 PM 62.1°F16.7°C 44.6°F7.0°C 53% 4.2 mph SW6.8 kmh SW 8.7 mph14.0 kmh 29.86 in1011.2 mb 0.00 in0.0 mm 0.00 in0.0 mm 0.00 in0.0 mm
06:15 PM 61.9°F16.6°C 44.6°F7.0°C 53% 5.4 mph WSW8.7 kmh WSW 6.7 mph10.8 kmh 29.86 in1011.2 mb 0.00 in0.0 mm 0.00 in0.0 mm 0.00 in0.0 mm
06:20 PM 61.7°F16.5°C 44.6°F7.0°C 53% 5.5 mph WSW8.9 kmh WSW 7.4 mph11.9 kmh 29.86 in1011.2 mb 0.00 in0.0 mm 0.00 in0.0 mm 0.00 in0.0 mm
06:25 PM 61.5°F16.4°C 44.6°F7.0°C 53% 6.9 mph WSW11.1 kmh WSW 12.1 mph19.5 kmh 29.86 in1011.2 mb 0.00 in0.0 mm 0.00 in0.0 mm 0.00 in0.0 mm
06:30 PM 61.5°F16.4°C 44.6°F7.0°C 53% 7.2 mph W11.6 kmh W 12.1 mph19.5 kmh 29.86 in1011.2 mb 0.00 in0.0 mm 0.00 in0.0 mm 0.00 in0.0 mm
06:35 PM 61.2°F16.2°C 44.6°F7.0°C 53% 5.7 mph WSW9.2 kmh WSW 9.8 mph15.8 kmh 29.86 in1011.2 mb 0.00 in0.0 mm 0.00 in0.0 mm 0.00 in0.0 mm
06:40 PM 61.2°F16.2°C 44.6°F7.0°C 53% 6.6 mph SW10.6 kmh SW 12.5 mph20.1 kmh 29.86 in1011.2 mb 0.00 in0.0 mm 0.00 in0.0 mm 0.00 in0.0 mm
06:45 PM 61.0°F16.1°C 44.6°F7.0°C 54% 6.7 mph WSW10.8 kmh WSW 12.5 mph20.1 kmh 29.86 in1011.2 mb 0.00 in0.0 mm 0.00 in0.0 mm 0.00 in0.0 mm
06:50 PM 60.8°F16.0°C 44.6°F7.0°C 54% 5.0 mph W8.0 kmh W 7.4 mph11.9 kmh 29.86 in1011.2 mb 0.00 in0.0 mm 0.00 in0.0 mm 0.00 in0.0 mm
06:55 PM 60.6°F15.9°C 44.6°F7.0°C 54% 4.4 mph WSW7.1 kmh WSW 7.4 mph11.9 kmh 29.86 in1011.2 mb 0.00 in0.0 mm 0.00 in0.0 mm 0.00 in0.0 mm
07:00 PM 60.6°F15.9°C 44.6°F7.0°C 54% 3.1 mph WSW5.0 kmh WSW 5.4 mph8.7 kmh 29.86 in1011.2 mb 0.00 in0.0 mm 0.00 in0.0 mm 0.00 in0.0 mm
07:05 PM 60.4°F15.8°C 44.6°F7.0°C 55% 3.7 mph WSW6.0 kmh WSW 6.3 mph10.1 kmh 29.86 in1011.2 mb 0.00 in0.0 mm 0.00 in0.0 mm 0.00 in0.0 mm
07:10 PM 60.4°F15.8°C 44.6°F7.0°C 55% 4.2 mph WSW6.8 kmh WSW 7.2 mph11.6 kmh 29.86 in1011.2 mb 0.00 in0.0 mm 0.00 in0.0 mm 0.00 in0.0 mm
07:15 PM 60.3°F15.7°C 44.6°F7.0°C 55% 4.0 mph WSW6.4 kmh WSW 7.2 mph11.6 kmh 29.86 in1011.2 mb 0.00 in0.0 mm 0.00 in0.0 mm 0.00 in0.0 mm
07:20 PM 60.1°F15.6°C 44.6°F7.0°C 55% 3.3 mph WSW5.3 kmh WSW 5.8 mph9.3 kmh 29.86 in1011.2 mb 0.00 in0.0 mm 0.00 in0.0 mm 0.00 in0.0 mm
07:25 PM 59.7°F15.4°C 44.6°F7.0°C 56% 2.7 mph WSW4.3 kmh WSW 4.0 mph6.4 kmh 29.89 in1012.2 mb 0.00 in0.0 mm 0.00 in0.0 mm 0.00 in0.0 mm
07:30 PM 59.5°F15.3°C 44.6°F7.0°C 56% 2.7 mph SW4.3 kmh SW 4.0 mph6.4 kmh 29.89 in1012.2 mb 0.00 in0.0 mm 0.00 in0.0 mm 0.00 in0.0 mm
07:35 PM 59.4°F15.2°C 44.6°F7.0°C 56% 2.8 mph SW4.5 kmh SW 6.0 mph9.7 kmh 29.89 in1012.2 mb 0.00 in0.0 mm 0.00 in0.0 mm 0.00 in0.0 mm
07:40 PM 59.0°F15.0°C 42.8°F6.0°C 56% 2.8 mph SW4.5 kmh SW 6.0 mph9.7 kmh 29.89 in1012.2 mb 0.00 in0.0 mm 0.00 in0.0 mm 0.00 in0.0 mm
07:45 PM 58.8°F14.9°C 44.6°F7.0°C 57% 2.8 mph SSW4.5 kmh SSW 5.4 mph8.7 kmh 29.89 in1012.2 mb 0.00 in0.0 mm 0.00 in0.0 mm 0.00 in0.0 mm
07:50 PM 58.6°F14.8°C 42.8°F6.0°C 57% 2.7 mph SW4.3 kmh SW 5.4 mph8.7 kmh 29.89 in1012.2 mb 0.00 in0.0 mm 0.00 in0.0 mm 0.00 in0.0 mm
07:55 PM 58.5°F14.7°C 42.8°F6.0°C 57% 2.9 mph WSW4.7 kmh WSW 6.0 mph9.7 kmh 29.89 in1012.2 mb 0.00 in0.0 mm 0.00 in0.0 mm 0.00 in0.0 mm
08:00 PM 58.3°F14.6°C 44.6°F7.0°C 58% 3.0 mph SW4.8 kmh SW 6.0 mph9.7 kmh 29.89 in1012.2 mb 0.00 in0.0 mm 0.00 in0.0 mm 0.00 in0.0 mm
08:05 PM 58.1°F14.5°C 44.6°F7.0°C 59% 3.5 mph SW5.6 kmh SW 6.5 mph10.5 kmh 29.89 in1012.2 mb 0.00 in0.0 mm 0.00 in0.0 mm 0.00 in0.0 mm
08:10 PM 57.9°F14.4°C 44.6°F7.0°C 59% 3.1 mph SW5.0 kmh SW 6.5 mph10.5 kmh 29.89 in1012.2 mb 0.00 in0.0 mm 0.00 in0.0 mm 0.00 in0.0 mm
08:15 PM 57.7°F14.3°C 44.6°F7.0°C 60% 2.4 mph SSW3.9 kmh SSW 4.0 mph6.4 kmh 29.89 in1012.2 mb 0.00 in0.0 mm 0.00 in0.0 mm 0.00 in0.0 mm
08:20 PM 57.6°F14.2°C 44.6°F7.0°C 60% 2.6 mph SSW4.2 kmh SSW 4.0 mph6.4 kmh 29.89 in1012.2 mb 0.00 in0.0 mm 0.00 in0.0 mm 0.00 in0.0 mm
08:25 PM 57.4°F14.1°C 44.6°F7.0°C 60% 2.7 mph SSW4.3 kmh SSW 4.0 mph6.4 kmh 29.89 in1012.2 mb 0.00 in0.0 mm 0.00 in0.0 mm 0.00 in0.0 mm
08:30 PM 57.2°F14.0°C 44.6°F7.0°C 61% 3.3 mph SW5.3 kmh SW 6.5 mph10.5 kmh 29.89 in1012.2 mb 0.00 in0.0 mm 0.00 in0.0 mm 0.00 in0.0 mm
08:35 PM 57.2°F14.0°C 44.6°F7.0°C 61% 3.9 mph SSW6.3 kmh SSW 6.5 mph10.5 kmh 29.89 in1012.2 mb 0.00 in0.0 mm 0.00 in0.0 mm 0.00 in0.0 mm
08:40 PM 57.0°F13.9°C 44.6°F7.0°C 61% 3.5 mph SSW5.6 kmh SSW 5.8 mph9.3 kmh 29.89 in1012.2 mb 0.00 in0.0 mm 0.00 in0.0 mm 0.00 in0.0 mm
08:45 PM 57.0°F13.9°C 44.6°F7.0°C 61% 3.1 mph SW5.0 kmh SW 4.7 mph7.6 kmh 29.89 in1012.2 mb 0.00 in0.0 mm 0.00 in0.0 mm 0.00 in0.0 mm
08:50 PM 56.8°F13.8°C 44.6°F7.0°C 62% 3.0 mph SW4.8 kmh SW 3.6 mph5.8 kmh 29.89 in1012.2 mb 0.00 in0.0 mm 0.00 in0.0 mm 0.00 in0.0 mm
08:55 PM 56.8°F13.8°C 42.8°F6.0°C 61% 2.9 mph SW4.7 kmh SW 3.6 mph5.8 kmh 29.89 in1012.2 mb 0.00 in0.0 mm 0.00 in0.0 mm 0.00 in0.0 mm
09:00 PM 56.7°F13.7°C 44.6°F7.0°C 62% 3.3 mph WSW5.3 kmh WSW 6.9 mph11.1 kmh 29.89 in1012.2 mb 0.00 in0.0 mm 0.00 in0.0 mm 0.00 in0.0 mm
09:05 PM 56.5°F13.6°C 44.6°F7.0°C 63% 2.9 mph W4.7 kmh W 6.9 mph11.1 kmh 29.89 in1012.2 mb 0.00 in0.0 mm 0.00 in0.0 mm 0.00 in0.0 mm
09:10 PM 56.3°F13.5°C 44.6°F7.0°C 63% 1.7 mph WNW2.7 kmh WNW 2.7 mph4.3 kmh 29.89 in1012.2 mb 0.00 in0.0 mm 0.00 in0.0 mm 0.00 in0.0 mm
09:15 PM 56.1°F13.4°C 44.6°F7.0°C 63% 1.8 mph W2.9 kmh W 3.6 mph5.8 kmh 29.89 in1012.2 mb 0.00 in0.0 mm 0.00 in0.0 mm 0.00 in0.0 mm
09:20 PM 55.9°F13.3°C 44.6°F7.0°C 63% 1.9 mph WSW3.1 kmh WSW 3.6 mph5.8 kmh 29.89 in1012.2 mb 0.00 in0.0 mm 0.00 in0.0 mm 0.00 in0.0 mm
09:25 PM 55.8°F13.2°C 44.6°F7.0°C 64% 1.6 mph SW2.6 kmh SW 2.9 mph4.7 kmh 29.89 in1012.2 mb 0.00 in0.0 mm 0.00 in0.0 mm 0.00 in0.0 mm
09:30 PM 55.6°F13.1°C 44.6°F7.0°C 64% 1.7 mph SW2.7 kmh SW 4.0 mph6.4 kmh 29.89 in1012.2 mb 0.00 in0.0 mm 0.00 in0.0 mm 0.00 in0.0 mm
09:35 PM 55.4°F13.0°C 44.6°F7.0°C 64% 2.0 mph SW3.2 kmh SW 4.0 mph6.4 kmh 29.89 in1012.2 mb 0.00 in0.0 mm 0.00 in0.0 mm 0.00 in0.0 mm
09:40 PM 55.4°F13.0°C 44.6°F7.0°C 64% 2.5 mph WSW4.0 kmh WSW 4.0 mph6.4 kmh 29.89 in1012.2 mb 0.00 in0.0 mm 0.00 in0.0 mm 0.00 in0.0 mm
09:45 PM 55.4°F13.0°C 44.6°F7.0°C 64% 2.6 mph SW4.2 kmh SW 3.8 mph6.1 kmh 29.89 in1012.2 mb 0.00 in0.0 mm 0.00 in0.0 mm 0.00 in0.0 mm
09:50 PM 55.2°F12.9°C 44.6°F7.0°C 64% 2.1 mph SW3.4 kmh SW 3.8 mph6.1 kmh 29.89 in1012.2 mb 0.00 in0.0 mm 0.00 in0.0 mm 0.00 in0.0 mm
09:55 PM 55.0°F12.8°C 44.6°F7.0°C 64% 1.6 mph WSW2.6 kmh WSW 2.5 mph4.0 kmh 29.92 in1013.2 mb 0.00 in0.0 mm 0.00 in0.0 mm 0.00 in0.0 mm
10:00 PM 55.0°F12.8°C 44.6°F7.0°C 64% 2.0 mph WSW3.2 kmh WSW 3.8 mph6.1 kmh 29.92 in1013.2 mb 0.00 in0.0 mm 0.00 in0.0 mm 0.00 in0.0 mm
10:05 PM 54.7°F12.6°C 44.6°F7.0°C 65% 1.7 mph WSW2.7 kmh WSW 3.8 mph6.1 kmh 29.92 in1013.2 mb 0.00 in0.0 mm 0.00 in0.0 mm 0.00 in0.0 mm
10:10 PM 54.3°F12.4°C 42.8°F6.0°C 66% 0.9 mph WSW1.4 kmh WSW 2.5 mph4.0 kmh 29.92 in1013.2 mb 0.00 in0.0 mm 0.00 in0.0 mm 0.00 in0.0 mm
10:15 PM 54.1°F12.3°C 42.8°F6.0°C 66% 1.6 mph W2.6 kmh W 3.6 mph5.8 kmh 29.92 in1013.2 mb 0.00 in0.0 mm 0.00 in0.0 mm 0.00 in0.0 mm
10:20 PM 53.8°F12.1°C 42.8°F6.0°C 66% 1.6 mph W2.6 kmh W 3.6 mph5.8 kmh 29.92 in1013.2 mb 0.00 in0.0 mm 0.00 in0.0 mm 0.00 in0.0 mm
10:25 PM 53.8°F12.1°C 42.8°F6.0°C 67% 0.6 mph WNW1.0 kmh WNW 3.1 mph5.0 kmh 29.92 in1013.2 mb 0.00 in0.0 mm 0.00 in0.0 mm 0.00 in0.0 mm
10:30 PM 53.6°F12.0°C 42.8°F6.0°C 67% 0.5 mph NW0.8 kmh NW 3.1 mph5.0 kmh 29.92 in1013.2 mb 0.00 in0.0 mm 0.00 in0.0 mm 0.00 in0.0 mm
10:35 PM 53.4°F11.9°C 42.8°F6.0°C 67% 0.8 mph NW1.3 kmh NW 2.9 mph4.7 kmh 29.92 in1013.2 mb 0.00 in0.0 mm 0.00 in0.0 mm 0.00 in0.0 mm
10:40 PM 53.2°F11.8°C 42.8°F6.0°C 67% 0.7 mph W1.1 kmh W 2.9 mph4.7 kmh 29.92 in1013.2 mb 0.00 in0.0 mm 0.00 in0.0 mm 0.00 in0.0 mm
10:45 PM 53.1°F11.7°C 42.8°F6.0°C 67% 0.4 mph W0.6 kmh W 2.0 mph3.2 kmh 29.92 in1013.2 mb 0.00 in0.0 mm 0.00 in0.0 mm 0.00 in0.0 mm
10:50 PM 53.1°F11.7°C 42.8°F6.0°C 67% 0.6 mph WSW1.0 kmh WSW 1.6 mph2.6 kmh 29.92 in1013.2 mb 0.00 in0.0 mm 0.00 in0.0 mm 0.00 in0.0 mm
10:55 PM 53.1°F11.7°C 42.8°F6.0°C 68% 0.9 mph SW1.4 kmh SW 1.6 mph2.6 kmh 29.92 in1013.2 mb 0.00 in0.0 mm 0.00 in0.0 mm 0.00 in0.0 mm
11:00 PM 53.1°F11.7°C 42.8°F6.0°C 67% 1.0 mph SW1.6 kmh SW 2.7 mph4.3 kmh 29.92 in1013.2 mb 0.00 in0.0 mm 0.00 in0.0 mm 0.00 in0.0 mm
11:05 PM 53.2°F11.8°C 42.8°F6.0°C 67% 1.7 mph SW2.7 kmh SW 3.6 mph5.8 kmh 29.92 in1013.2 mb 0.00 in0.0 mm 0.00 in0.0 mm 0.00 in0.0 mm
11:10 PM 53.4°F11.9°C 42.8°F6.0°C 67% 2.6 mph SW4.2 kmh SW 3.6 mph5.8 kmh 29.92 in1013.2 mb 0.00 in0.0 mm 0.00 in0.0 mm 0.00 in0.0 mm
11:15 PM 53.2°F11.8°C 42.8°F6.0°C 67% 2.9 mph WSW4.7 kmh WSW 4.3 mph6.9 kmh 29.92 in1013.2 mb 0.00 in0.0 mm 0.00 in0.0 mm 0.00 in0.0 mm
11:20 PM 53.2°F11.8°C 42.8°F6.0°C 68% 2.9 mph SW4.7 kmh SW 4.3 mph6.9 kmh 29.92 in1013.2 mb 0.00 in0.0 mm 0.00 in0.0 mm 0.00 in0.0 mm
11:25 PM 53.2°F11.8°C 42.8°F6.0°C 67% 2.6 mph SW4.2 kmh SW 4.0 mph6.4 kmh 29.92 in1013.2 mb 0.00 in0.0 mm 0.00 in0.0 mm 0.00 in0.0 mm
11:30 PM 53.4°F11.9°C 42.8°F6.0°C 67% 2.7 mph SW4.3 kmh SW 6.3 mph10.1 kmh 29.92 in1013.2 mb 0.00 in0.0 mm 0.00 in0.0 mm 0.00 in0.0 mm
11:35 PM 53.4°F11.9°C 42.8°F6.0°C 67% 2.9 mph SW4.7 kmh SW 6.5 mph10.5 kmh 29.92 in1013.2 mb 0.00 in0.0 mm 0.00 in0.0 mm 0.00 in0.0 mm
11:40 PM 53.2°F11.8°C 42.8°F6.0°C 68% 2.8 mph SW4.5 kmh SW 6.5 mph10.5 kmh 29.92 in1013.2 mb 0.00 in0.0 mm 0.00 in0.0 mm 0.00 in0.0 mm
11:45 PM 53.1°F11.7°C 42.8°F6.0°C 69% 1.8 mph SW2.9 kmh SW 3.6 mph5.8 kmh 29.92 in1013.2 mb 0.00 in0.0 mm 0.00 in0.0 mm 0.00 in0.0 mm
11:50 PM 52.9°F11.6°C 42.8°F6.0°C 69% 1.1 mph SSW1.8 kmh SSW 3.6 mph5.8 kmh 29.92 in1013.2 mb 0.00 in0.0 mm 0.00 in0.0 mm 0.00 in0.0 mm
11:55 PM 52.9°F11.6°C 42.8°F6.0°C 69% 1.1 mph SSW1.8 kmh SSW 2.7 mph4.3 kmh 29.92 in1013.2 mb 0.00 in0.0 mm 0.00 in0.0 mm 0.00 in0.0 mm